Totland Bay, United Kingdom
Current Conditions -  °F | °C
As of 4:20 PM on Thursday 29 Jan 2015 (Local Time) from EGHH Reporting Station
Hail Hail  
Wind Chill: -1°   Ceiling: Unl
Heat Index:   Visibility: 3mi
Dew Point:   Wind: 13mph
Humidity: 87%   Direction: 330°NNW
Pressure: 28.91"   Gusts: NA
Location:  50.68°N, 1.53°W
Report Text: EGHH 291620Z 33011KT 5000 SHRAGS SCT009 SCT023CB 03/01 Q0979
Loading
Personal Weather Stations






























Interactive Weather Map New forecast layout! Learn more

10-Day Weather Forecast

Advertisements
Track Severe Weather on mobile